Gulf - Magdalen: Past 24 Hour Conditions

 

Natashquan Airport

12:00 PM EDT 01 August 2014
This table is a summary of hourly weather conditions for the past 24 hours.
Date / Time
(EDT)
Wind(knots) Conditions Visibility(km) Pressure(kPa) Air tempC) Relative humidity(%) Dew pointC)
01 August 2014
12:00 WSW 7 Partly Cloudy 16 102.1 18 87 16
11:00 WSW 8 Mist 1 102.1 17 95 16
10:00 WSW 7 Fog 0.4 102.1 17 97 16
9:00 WSW 6 Mist 1 102.1 17 98 16
8:00 SW 8 Light Rain 0.4 102.0 16 98 16
7:00 WNW 7 Fog 0.4 101.9 17 98 16
6:00 W 7 Mist 3 101.9 16 97 16
5:00 SW 6 Mostly Cloudy 16 101.9 15 98 15
4:00 SW 3 Mist 8 101.8 15 98 14
3:00 SSE 5 Mist 1 101.8 15 98 15
2:00 SSE 5 Mist 8 101.8 15 98 15
1:00 SSE 4 Mostly Cloudy 11 101.8 16 98 16
0:00 SE 5 Clear 11 101.8 16 97 15
31 July 2014
23:00 S 5 Partly Cloudy 16 101.8 17 97 16
22:00 S 10 Cloudy 16 101.8 18 94 17
21:00 SSW 11 Mostly Cloudy 16 101.8 18 94 17
20:00 S 6 Mist 3 101.8 18 97 18
19:00 ESE 7 Cloudy 16 101.8 18 97 18
18:00 ESE 10 Cloudy 15 101.7 19 96 18
17:00 E 12 Cloudy 15 101.7 19 96 19
16:00 E 10 Mist 5 101.8 19 95 19
15:00 ENE 9 gust 15 Cloudy 16 101.8 20 94 19
14:00 E 13 Cloudy 16 101.8 20 92 19
13:00 E 15 Light Rain 6 101.8 18 94 17
12:00 ESE 10 gust 16 Rain 6 102.0 18 93 17
 
Map of Atlantic - Newfoundland marine weather areas Southwestern Grand Banks - 44138 Banquereau - 44139 Tail of the Bank - 44140 Nickerson Bank - 44251 Northeast Burgeo Bank - 44255 Blanc-Sablon Airport Cap Whittle Chevery Natashquan Airport Heath Point Miscou Island Grand Étang Ingonish Beach North Mountain St.Paul Island J.A. Douglas McCurdy Sydney Airport Charlottetown Airport East Point North Cape Argentia Bonavista Burgeo Cape Race Corner Brook Daniel's Harbour Englee Ferolle Point La Scie Port aux Basques Rocky Harbour Sagona Island St. Anthony Airport St. John's Int'l Airport St. Lawrence Stephenville Airport Twillingate Winterland Wreckhouse Cartwright Airport Mary's Harbour Grates Cove Pool's Island Marticot Island Long Pond Îles de la Madeleine Airport
Legend: buoyBuoy land stationLand Station